createdAt,value
2019-06-27T00:00:51.390Z,98.68
2019-06-27T00:01:51.439Z,98.97
2019-06-27T00:02:51.494Z,99.36
2019-06-27T00:03:51.567Z,99.99
2019-06-27T00:04:51.622Z,99.55
2019-06-27T00:05:51.673Z,99.99
2019-06-27T00:06:51.706Z,99.99
2019-06-27T00:07:51.862Z,99.99
2019-06-27T00:08:51.816Z,99.99
2019-06-27T00:09:51.888Z,99.99
2019-06-27T00:10:51.942Z,99.99
2019-06-27T00:11:51.978Z,99.99
2019-06-27T00:12:52.034Z,99.99
2019-06-27T00:13:52.086Z,99.99
2019-06-27T00:14:52.135Z,99.99
2019-06-27T00:15:52.206Z,99.99
2019-06-27T00:16:52.265Z,99.99
2019-06-27T00:17:52.308Z,99.99
2019-06-27T00:18:52.387Z,99.99
2019-06-27T00:19:52.405Z,99.99
2019-06-27T00:20:52.474Z,99.99
2019-06-27T00:21:52.516Z,99.99
2019-06-27T00:22:52.556Z,99.99
2019-06-27T00:23:52.622Z,99.99
2019-06-27T00:24:52.666Z,99.99
2019-06-27T00:25:52.737Z,99.99
2019-06-27T00:26:56.918Z,99.99
2019-06-27T00:27:52.831Z,99.99
2019-06-27T00:28:52.871Z,99.99
2019-06-27T00:29:52.924Z,99.99
2019-06-27T00:30:53.001Z,99.99
2019-06-27T00:31:53.060Z,99.99
2019-06-27T00:32:53.086Z,99.99
2019-06-27T00:33:53.146Z,99.99
2019-06-27T00:34:53.189Z,99.99
2019-06-27T00:35:53.325Z,99.99
2019-06-27T00:36:53.296Z,99.99
2019-06-27T00:37:53.347Z,99.99
2019-06-27T00:38:53.400Z,99.99
2019-06-27T00:39:53.455Z,99.99
2019-06-27T00:40:53.527Z,99.99
2019-06-27T00:41:53.630Z,99.99
2019-06-27T00:42:53.615Z,99.99
2019-06-27T00:43:53.671Z,99.99
2019-06-27T00:44:53.717Z,99.99
2019-06-27T00:45:53.809Z,99.99
2019-06-27T00:46:53.849Z,99.99
2019-06-27T00:47:53.880Z,99.99
2019-06-27T00:48:53.928Z,99.99
2019-06-27T00:49:53.981Z,99.99
2019-06-27T00:50:54.055Z,99.99
2019-06-27T00:51:54.112Z,99.99
2019-06-27T00:52:54.144Z,99.99
2019-06-27T00:53:54.193Z,99.99
2019-06-27T00:54:54.247Z,99.99
2019-06-27T00:55:54.299Z,99.99
2019-06-27T00:56:54.369Z,99.99
2019-06-27T00:57:54.405Z,99.99
2019-06-27T00:58:54.462Z,99.99
2019-06-27T00:59:54.514Z,99.99
2019-06-27T01:00:54.564Z,99.99
2019-06-27T01:01:54.638Z,99.99
2019-06-27T01:02:54.669Z,99.99
2019-06-27T01:03:54.778Z,99.99
2019-06-27T01:04:54.781Z,99.99
2019-06-27T01:05:54.827Z,99.99
2019-06-27T01:06:54.898Z,99.99
2019-06-27T01:07:54.938Z,99.99
2019-06-27T01:08:54.984Z,99.99
2019-06-27T01:09:55.040Z,99.99
2019-06-27T01:10:55.091Z,99.99
2019-06-27T01:11:55.171Z,99.99
2019-06-27T01:12:55.212Z,99.99
2019-06-27T01:13:55.248Z,99.99
2019-06-27T01:14:55.312Z,99.99
2019-06-27T01:15:55.355Z,99.99
2019-06-27T01:16:55.433Z,99.99
2019-06-27T01:17:55.462Z,99.99
2019-06-27T01:18:55.517Z,99.99
2019-06-27T01:19:55.565Z,99.99
2019-06-27T01:20:55.618Z,99.99
2019-06-27T01:21:55.696Z,99.99
2019-06-27T01:22:55.750Z,99.99
2019-06-27T01:23:55.791Z,99.99
2019-06-27T01:24:55.827Z,99.99
2019-06-27T01:25:55.879Z,99.99
2019-06-27T01:26:55.933Z,99.99
2019-06-27T01:27:56.007Z,99.99
2019-06-27T01:28:56.037Z,99.99
2019-06-27T01:29:56.090Z,99.99
2019-06-27T01:30:56.144Z,99.99
2019-06-27T01:31:56.195Z,99.99
2019-06-27T01:32:56.276Z,99.99
2019-06-27T01:33:56.310Z,99.99
2019-06-27T01:34:56.353Z,99.99
2019-06-27T01:35:56.417Z,99.99
2019-06-27T01:36:56.460Z,99.99
2019-06-27T01:37:56.532Z,99.99
2019-06-27T01:38:56.580Z,99.99
2019-06-27T01:39:56.623Z,99.99
2019-06-27T01:40:56.675Z,99.99
2019-06-27T01:41:56.723Z,99.99
2019-06-27T01:42:56.802Z,99.99
2019-06-27T01:43:56.829Z,99.99
2019-06-27T01:44:56.883Z,99.99
2019-06-27T01:45:56.930Z,99.99
2019-06-27T01:46:56.981Z,99.99
2019-06-27T01:47:57.076Z,99.99
2019-06-27T01:48:57.090Z,99.99
2019-06-27T01:49:57.143Z,99.99
2019-06-27T01:50:57.192Z,99.99
2019-06-27T01:51:57.246Z,99.99
2019-06-27T01:52:57.327Z,99.99
2019-06-27T01:53:57.365Z,99.99
2019-06-27T01:54:57.419Z,99.99
2019-06-27T01:55:57.457Z,99.99
2019-06-27T01:56:57.512Z,99.99
2019-06-27T01:57:57.581Z,99.99
2019-06-27T01:58:57.633Z,99.99
2019-06-27T01:59:57.665Z,99.99
2019-06-27T02:00:57.726Z,99.99
2019-06-27T02:01:57.768Z,99.99
2019-06-27T02:02:57.836Z,99.99
2019-06-27T02:03:57.923Z,99.99
2019-06-27T02:04:57.924Z,99.99
2019-06-27T02:05:57.981Z,99.99
2019-06-27T02:06:58.038Z,99.99
2019-06-27T02:07:58.083Z,99.99
2019-06-27T02:08:58.157Z,99.99
2019-06-27T02:09:58.193Z,99.99
2019-06-27T02:10:58.246Z,99.99
2019-06-27T02:11:58.305Z,99.99
2019-06-27T02:12:58.344Z,99.99
2019-06-27T02:13:58.425Z,99.99
2019-06-27T02:14:58.448Z,99.99
2019-06-27T02:15:58.499Z,99.99
2019-06-27T02:16:58.550Z,99.99
2019-06-27T02:17:58.626Z,99.99
2019-06-27T02:18:58.678Z,99.99
2019-06-27T02:19:58.752Z,99.99
2019-06-27T02:20:58.761Z,99.99
2019-06-27T02:21:58.819Z,99.99
2019-06-27T02:22:58.917Z,99.99
2019-06-27T02:23:58.935Z,99.99
2019-06-27T02:24:58.968Z,99.99
2019-06-27T02:25:59.021Z,99.99
2019-06-27T02:26:59.073Z,99.99
2019-06-27T02:28:04.187Z,99.99
2019-06-27T02:28:59.197Z,99.99
2019-06-27T02:29:59.232Z,0.00
2019-06-27T02:30:59.292Z,0.00
2019-06-27T02:31:59.336Z,0.00
2019-06-27T02:32:59.383Z,0.00
2019-06-27T02:33:59.458Z,0.00
2019-06-27T02:34:59.502Z,0.00
2019-06-27T02:35:59.543Z,0.00
2019-06-27T02:36:59.605Z,0.00
2019-06-27T02:37:59.647Z,0.00
2019-06-27T02:38:59.733Z,0.00
2019-06-27T02:39:59.753Z,0.00
2019-06-27T02:40:59.803Z,0.00
2019-06-27T02:41:59.857Z,0.00
2019-06-27T02:42:59.909Z,0.00
2019-06-27T02:44:00.002Z,0.00
2019-06-27T02:45:00.017Z,0.00
2019-06-27T02:46:00.074Z,0.00
2019-06-27T02:47:00.115Z,0.00
2019-06-27T02:48:00.167Z,0.00
2019-06-27T02:49:00.238Z,0.00
2019-06-27T02:50:00.293Z,0.00
2019-06-27T02:51:00.329Z,0.00
2019-06-27T02:52:00.377Z,0.00
2019-06-27T02:53:00.436Z,0.00
2019-06-27T02:54:00.478Z,0.00
2019-06-27T02:55:00.551Z,0.00
2019-06-27T02:56:00.583Z,0.00
2019-06-27T02:57:00.635Z,0.00
2019-06-27T02:58:00.694Z,0.00
2019-06-27T02:59:00.739Z,0.00
2019-06-27T03:00:00.819Z,0.00
2019-06-27T03:01:00.854Z,0.00
2019-06-27T03:02:00.899Z,0.00
2019-06-27T03:03:00.945Z,0.00
2019-06-27T03:04:01.000Z,0.00
2019-06-27T03:05:01.080Z,0.00
2019-06-27T03:06:01.115Z,0.00
2019-06-27T03:07:01.156Z,0.00
2019-06-27T03:08:01.207Z,0.00
2019-06-27T03:09:01.261Z,0.00
2019-06-27T03:10:01.377Z,0.00
2019-06-27T03:11:01.363Z,0.00
2019-06-27T03:12:01.413Z,0.00
2019-06-27T03:13:01.510Z,0.00
2019-06-27T03:14:01.521Z,0.00
2019-06-27T03:15:01.598Z,0.00
2019-06-27T03:16:01.623Z,99.99
2019-06-27T03:17:01.676Z,0.00
2019-06-27T03:18:01.733Z,0.00
2019-06-27T03:19:01.784Z,0.00
2019-06-27T03:20:01.851Z,0.00
2019-06-27T03:21:01.902Z,0.00
2019-06-27T03:22:05.641Z,0.00
2019-06-27T03:23:02.000Z,0.00
2019-06-27T03:24:02.039Z,0.00
2019-06-27T03:25:02.111Z,0.00
2019-06-27T03:26:02.181Z,0.00
2019-06-27T03:27:02.234Z,0.00
2019-06-27T03:28:02.255Z,0.00
2019-06-27T03:29:02.374Z,0.00
2019-06-27T03:30:02.359Z,0.00
2019-06-27T03:31:02.431Z,0.00
2019-06-27T03:32:02.627Z,0.00
2019-06-27T03:33:02.538Z,0.00
2019-06-27T03:34:02.560Z,0.00
2019-06-27T03:35:02.610Z,0.00
2019-06-27T03:36:02.704Z,0.00
2019-06-27T03:37:02.719Z,0.00
2019-06-27T03:38:02.772Z,0.00
2019-06-27T03:39:02.828Z,0.00
2019-06-27T03:40:02.875Z,0.00
2019-06-27T03:41:02.941Z,0.00
2019-06-27T03:42:02.986Z,0.00
2019-06-27T03:43:03.032Z,0.00
2019-06-27T03:44:03.087Z,0.00
2019-06-27T03:45:03.126Z,0.00
2019-06-27T03:46:03.199Z,0.00
2019-06-27T03:47:03.249Z,0.00
2019-06-27T03:48:03.285Z,0.00
2019-06-27T03:49:03.337Z,0.00
2019-06-27T03:50:03.386Z,0.00
2019-06-27T03:51:03.467Z,0.00
2019-06-27T03:52:03.524Z,0.00
2019-06-27T03:53:03.552Z,0.00
2019-06-27T03:54:03.598Z,0.00
2019-06-27T03:55:03.657Z,0.00
2019-06-27T03:56:03.730Z,0.00
2019-06-27T03:57:03.793Z,0.00
2019-06-27T03:58:03.807Z,0.00
2019-06-27T03:59:12.504Z,0.00
2019-06-27T04:00:03.913Z,0.00
2019-06-27T04:01:03.980Z,0.00
2019-06-27T04:02:04.033Z,0.00
2019-06-27T04:03:04.069Z,0.00
2019-06-27T04:04:04.117Z,0.00
2019-06-27T04:05:04.192Z,0.00
2019-06-27T04:06:04.228Z,0.00
2019-06-27T04:07:04.292Z,0.00
2019-06-27T04:08:04.323Z,0.00
2019-06-27T04:09:04.383Z,0.00
2019-06-27T04:10:04.429Z,0.00
2019-06-27T04:11:04.477Z,0.00
2019-06-27T04:12:04.553Z,0.00
2019-06-27T04:13:04.631Z,0.00
2019-06-27T04:14:04.633Z,0.00
2019-06-27T04:15:04.686Z,0.00
2019-06-27T04:16:04.745Z,0.00
2019-06-27T04:17:04.814Z,0.00
2019-06-27T04:18:04.846Z,0.00
2019-06-27T04:19:04.894Z,0.00
2019-06-27T04:20:04.957Z,0.00
2019-06-27T04:21:05.002Z,0.00
2019-06-27T04:22:05.067Z,0.00
2019-06-27T04:23:05.108Z,0.00
2019-06-27T04:24:05.156Z,0.00
2019-06-27T04:25:05.205Z,0.00
2019-06-27T04:26:05.860Z,0.00
2019-06-27T04:27:05.329Z,0.00
2019-06-27T04:28:05.383Z,0.00
2019-06-27T04:29:05.414Z,0.00
2019-06-27T04:30:05.463Z,0.00
2019-06-27T04:31:05.527Z,0.00
2019-06-27T04:32:05.567Z,0.00
2019-06-27T04:33:05.643Z,0.00
2019-06-27T04:34:05.674Z,0.00
2019-06-27T04:35:05.722Z,0.00
2019-06-27T04:36:05.777Z,0.00
2019-06-27T04:37:05.828Z,0.00
2019-06-27T04:38:05.900Z,0.00
2019-06-27T04:39:05.932Z,0.00
2019-06-27T04:40:05.985Z,0.00
2019-06-27T04:41:06.062Z,0.00
2019-06-27T04:42:06.116Z,0.00
2019-06-27T04:43:06.495Z,0.00
2019-06-27T04:44:06.197Z,0.00
2019-06-27T04:45:06.253Z,0.00
2019-06-27T04:46:06.296Z,0.00
2019-06-27T04:47:06.348Z,0.00
2019-06-27T04:48:06.424Z,0.00
2019-06-27T04:49:06.454Z,0.00
2019-06-27T04:50:06.507Z,0.00
2019-06-27T04:51:06.575Z,0.00
2019-06-27T04:52:06.617Z,0.00
2019-06-27T04:53:06.690Z,0.00
2019-06-27T04:54:06.714Z,0.00
2019-06-27T04:55:06.821Z,0.00
2019-06-27T04:56:06.820Z,0.00
2019-06-27T04:57:06.869Z,0.00
2019-06-27T04:58:06.943Z,0.00
2019-06-27T04:59:06.980Z,0.00
2019-06-27T05:00:07.030Z,0.00
2019-06-27T05:01:07.092Z,0.00
2019-06-27T05:02:07.133Z,0.00
2019-06-27T05:03:07.211Z,0.00
2019-06-27T05:04:07.247Z,0.00
2019-06-27T05:05:07.296Z,0.00
2019-06-27T05:06:07.343Z,0.00
2019-06-27T05:07:07.396Z,0.00
2019-06-27T05:08:07.490Z,0.00
2019-06-27T05:09:07.499Z,0.00
2019-06-27T05:10:07.557Z,0.00
2019-06-27T05:11:07.611Z,0.00
2019-06-27T05:12:07.672Z,0.00
2019-06-27T05:13:07.738Z,0.00
2019-06-27T05:14:07.779Z,0.00
2019-06-27T05:15:07.824Z,0.00
2019-06-27T05:16:07.870Z,0.00
2019-06-27T05:17:07.920Z,0.00
2019-06-27T05:18:07.979Z,0.00
2019-06-27T05:19:08.046Z,0.00
2019-06-27T05:20:08.075Z,0.00
2019-06-27T05:21:08.129Z,0.00
2019-06-27T05:22:08.184Z,0.00
2019-06-27T05:23:08.239Z,0.00
2019-06-27T05:24:08.308Z,0.00
2019-06-27T05:25:08.346Z,0.00
2019-06-27T05:26:08.394Z,0.00
2019-06-27T05:27:08.453Z,0.00
2019-06-27T05:28:08.495Z,0.00
2019-06-27T05:29:08.572Z,0.00
2019-06-27T05:30:10.205Z,0.00
2019-06-27T05:31:08.657Z,0.00
2019-06-27T05:32:08.707Z,0.00
2019-06-27T05:33:08.760Z,0.00
2019-06-27T05:34:08.840Z,0.00
2019-06-27T05:35:08.879Z,0.00
2019-06-27T05:36:08.920Z,0.00
2019-06-27T05:37:08.970Z,0.00
2019-06-27T05:38:09.027Z,0.00
2019-06-27T05:39:09.110Z,0.00
2019-06-27T05:40:09.132Z,0.00
2019-06-27T05:41:09.183Z,0.00
2019-06-27T05:42:09.235Z,0.00
2019-06-27T05:43:09.289Z,0.00
2019-06-27T05:44:09.363Z,0.00
2019-06-27T05:45:09.392Z,0.00
2019-06-27T05:46:09.450Z,0.00
2019-06-27T05:47:09.502Z,0.00
2019-06-27T05:48:09.552Z,0.00
2019-06-27T05:49:09.634Z,0.00
2019-06-27T05:50:09.680Z,0.00
2019-06-27T05:51:09.711Z,0.00
2019-06-27T05:52:09.766Z,0.00
2019-06-27T05:53:09.818Z,0.00
2019-06-27T05:54:09.888Z,0.00
2019-06-27T05:55:09.951Z,0.00
2019-06-27T05:56:09.991Z,0.00
2019-06-27T05:57:10.028Z,0.00
2019-06-27T05:58:10.090Z,0.00
2019-06-27T05:59:10.166Z,0.00
2019-06-27T06:00:26.543Z,0.00
2019-06-27T06:01:10.304Z,0.00
2019-06-27T06:02:10.304Z,0.00
2019-06-27T06:03:10.349Z,0.00
2019-06-27T06:04:10.401Z,0.00
2019-06-27T06:05:10.478Z,0.00
2019-06-27T06:06:10.513Z,0.00
2019-06-27T06:07:10.679Z,0.00
2019-06-27T06:08:10.615Z,0.00
2019-06-27T06:09:10.689Z,0.00
2019-06-27T06:10:10.741Z,0.00
2019-06-27T06:11:10.774Z,0.00
2019-06-27T06:12:10.826Z,0.00
2019-06-27T06:13:10.889Z,0.00
2019-06-27T06:14:10.932Z,0.00
2019-06-27T06:15:11.010Z,0.00
2019-06-27T06:16:11.042Z,0.00
2019-06-27T06:17:11.093Z,0.00
2019-06-27T06:18:11.148Z,0.00
2019-06-27T06:19:11.199Z,0.00
2019-06-27T06:20:11.278Z,0.00
2019-06-27T06:21:11.307Z,0.00
2019-06-27T06:22:11.369Z,0.00
2019-06-27T06:23:11.414Z,0.00
2019-06-27T06:24:11.477Z,0.00
2019-06-27T06:25:11.566Z,0.00
2019-06-27T06:26:11.604Z,0.00
2019-06-27T06:27:11.629Z,0.00
2019-06-27T06:28:11.680Z,0.00
2019-06-27T06:29:11.734Z,0.00
2019-06-27T06:30:11.785Z,0.00
2019-06-27T06:31:11.862Z,0.00
2019-06-27T06:32:11.917Z,0.00
2019-06-27T06:33:11.950Z,0.00
2019-06-27T06:34:12.006Z,0.00
2019-06-27T06:35:12.052Z,0.00
2019-06-27T06:36:12.128Z,0.00
2019-06-27T06:37:12.161Z,0.00
2019-06-27T06:38:12.216Z,0.00
2019-06-27T06:39:12.269Z,0.00
2019-06-27T06:40:12.323Z,0.00
2019-06-27T06:41:12.393Z,0.00
2019-06-27T06:42:12.438Z,0.00
2019-06-27T06:43:12.480Z,0.00
2019-06-27T06:44:12.533Z,0.00
2019-06-27T06:45:12.590Z,0.00
2019-06-27T06:46:12.660Z,0.00
2019-06-27T06:47:12.696Z,0.00
2019-06-27T06:48:12.750Z,0.00
2019-06-27T06:49:12.826Z,0.00
2019-06-27T06:50:12.857Z,0.00
2019-06-27T06:51:12.940Z,0.00
2019-06-27T06:52:12.971Z,0.00
2019-06-27T06:53:13.020Z,0.00
2019-06-27T06:54:13.106Z,0.00
2019-06-27T06:55:13.129Z,0.00
2019-06-27T06:56:13.203Z,0.00
2019-06-27T06:57:13.241Z,0.00
2019-06-27T06:58:13.299Z,0.00
2019-06-27T06:59:13.370Z,0.00
2019-06-27T07:00:13.401Z,0.00
2019-06-27T07:01:13.477Z,0.00
2019-06-27T07:02:13.533Z,0.00
2019-06-27T07:03:13.573Z,0.00
2019-06-27T07:04:13.634Z,0.00
2019-06-27T07:05:13.677Z,0.00
2019-06-27T07:06:13.733Z,0.00
2019-06-27T07:07:13.819Z,0.00
2019-06-27T07:08:13.844Z,0.00
2019-06-27T07:09:13.904Z,0.00
2019-06-27T07:10:13.965Z,0.00
2019-06-27T07:11:14.029Z,0.00
2019-06-27T07:12:14.068Z,0.00
2019-06-27T07:13:14.126Z,0.00
2019-06-27T07:14:14.184Z,0.00
2019-06-27T07:15:14.235Z,0.00
2019-06-27T07:16:14.310Z,0.00
2019-06-27T07:17:14.390Z,0.00
2019-06-27T07:18:14.398Z,0.00
2019-06-27T07:19:14.455Z,0.00
2019-06-27T07:20:14.520Z,0.00
2019-06-27T07:21:14.566Z,0.00
2019-06-27T07:22:14.640Z,0.00
2019-06-27T07:23:14.678Z,0.00
2019-06-27T07:24:14.768Z,0.00
2019-06-27T07:25:14.826Z,0.00
2019-06-27T07:26:14.851Z,0.00
2019-06-27T07:27:14.973Z,0.00
2019-06-27T07:28:14.958Z,0.00
2019-06-27T07:29:15.020Z,0.00
2019-06-27T07:30:15.077Z,0.00
2019-06-27T07:31:18.269Z,0.00
2019-06-27T07:32:15.210Z,0.00
2019-06-27T07:33:15.248Z,0.00
2019-06-27T07:34:15.302Z,0.00
2019-06-27T07:35:15.355Z,0.00
2019-06-27T07:36:15.415Z,0.00
2019-06-27T07:37:15.500Z,0.00
2019-06-27T07:38:15.527Z,0.00
2019-06-27T07:39:15.596Z,0.00
2019-06-27T07:40:15.645Z,0.00
2019-06-27T07:41:15.696Z,0.00
2019-06-27T07:42:15.806Z,0.00
2019-06-27T07:43:15.820Z,0.00
2019-06-27T07:44:15.868Z,0.00
2019-06-27T07:45:15.924Z,0.00
2019-06-27T07:46:25.086Z,0.00
2019-06-27T07:47:16.086Z,0.00
2019-06-27T07:48:16.101Z,0.00
2019-06-27T07:49:16.157Z,0.00
2019-06-27T07:50:16.221Z,0.00
2019-06-27T07:51:16.268Z,0.00
2019-06-27T07:52:16.361Z,0.00
2019-06-27T07:53:16.386Z,0.00
2019-06-27T07:54:16.451Z,0.00
2019-06-27T07:55:16.625Z,0.00
2019-06-27T07:56:16.592Z,0.00
2019-06-27T07:57:16.639Z,0.00
2019-06-27T07:58:16.809Z,0.00
2019-06-27T07:59:16.736Z,0.00
2019-06-27T08:00:16.796Z,0.00
2019-06-27T08:01:33.682Z,0.00
2019-06-27T08:02:16.914Z,0.00
2019-06-27T08:03:16.987Z,0.00
2019-06-27T08:04:17.023Z,0.00
2019-06-27T08:05:17.080Z,0.00
2019-06-27T08:06:17.155Z,0.00
2019-06-27T08:07:20.929Z,0.00
2019-06-27T08:08:17.293Z,0.00
2019-06-27T08:09:17.315Z,0.00
2019-06-27T08:10:17.374Z,0.00
2019-06-27T08:11:17.433Z,0.00
2019-06-27T08:12:17.519Z,0.00
2019-06-27T08:13:17.686Z,0.00
2019-06-27T08:14:17.608Z,0.00
2019-06-27T08:15:17.664Z,0.00
2019-06-27T08:16:17.735Z,0.00
2019-06-27T08:17:17.792Z,0.00
2019-06-27T08:18:17.885Z,0.00
2019-06-27T08:19:17.902Z,71.47
2019-06-27T08:20:17.988Z,72.47
2019-06-27T08:21:18.019Z,74.49
2019-06-27T08:22:18.078Z,75.24
2019-06-27T08:23:18.159Z,76.48
2019-06-27T08:24:18.333Z,77.65
2019-06-27T08:25:18.254Z,76.51
2019-06-27T08:26:18.317Z,77.73
2019-06-27T08:27:18.381Z,74.49
2019-06-27T08:28:18.455Z,73.09
2019-06-27T08:29:18.492Z,75.66
2019-06-27T08:30:18.567Z,75.27
2019-06-27T08:31:18.621Z,76.70
2019-06-27T08:32:18.670Z,78.98
2019-06-27T08:33:18.763Z,78.20
2019-06-27T08:34:18.784Z,79.84
2019-06-27T08:35:18.841Z,77.06
2019-06-27T08:36:18.906Z,78.49
2019-06-27T08:37:18.973Z,79.33
2019-06-27T08:38:19.033Z,81.35
2019-06-27T08:39:19.097Z,83.20
2019-06-27T08:40:19.188Z,82.91
2019-06-27T08:41:19.193Z,83.09
2019-06-27T08:42:19.302Z,79.21
2019-06-27T08:43:19.309Z,78.63
2019-06-27T08:44:19.404Z,79.98
2019-06-27T08:45:19.430Z,82.38
2019-06-27T08:46:19.485Z,83.16
2019-06-27T08:47:19.542Z,82.63
2019-06-27T08:48:19.604Z,83.16
2019-06-27T08:49:19.692Z,82.63
2019-06-27T08:50:19.715Z,83.31
2019-06-27T08:51:19.818Z,82.92
2019-06-27T08:52:19.838Z,81.56
2019-06-27T08:53:19.890Z,78.47
2019-06-27T08:54:19.972Z,79.39
2019-06-27T08:55:20.011Z,80.11
2019-06-27T08:56:20.071Z,79.14
2019-06-27T08:57:20.119Z,79.27
2019-06-27T08:58:20.178Z,79.66
2019-06-27T08:59:20.263Z,79.11
2019-06-27T09:00:20.299Z,79.08
2019-06-27T09:01:20.360Z,79.08
2019-06-27T09:02:20.509Z,78.30
2019-06-27T09:03:20.482Z,78.16
2019-06-27T09:04:20.559Z,77.48
2019-06-27T09:05:20.586Z,76.40
2019-06-27T09:06:21.256Z,73.57
2019-06-27T09:07:20.714Z,73.66
2019-06-27T09:08:20.762Z,74.74
2019-06-27T09:09:20.859Z,75.66
2019-06-27T09:10:20.884Z,74.91
2019-06-27T09:11:20.953Z,74.81
2019-06-27T09:12:21.003Z,75.01
2019-06-27T09:13:21.058Z,75.76
2019-06-27T09:14:21.135Z,76.50
2019-06-27T09:15:21.169Z,76.70
2019-06-27T09:16:21.233Z,76.37
2019-06-27T09:17:21.285Z,77.58
2019-06-27T09:18:21.344Z,77.51
2019-06-27T09:19:21.430Z,75.83
2019-06-27T09:20:21.461Z,73.91
2019-06-27T09:21:21.523Z,72.41
2019-06-27T09:22:21.578Z,74.16
2019-06-27T09:23:21.634Z,72.30
2019-06-27T09:24:21.739Z,76.66
2019-06-27T09:25:21.774Z,78.03
2019-06-27T09:26:21.806Z,77.19
2019-06-27T09:27:21.892Z,76.70
2019-06-27T09:28:21.928Z,78.88
2019-06-27T09:29:22.006Z,76.44
2019-06-27T09:30:22.063Z,76.52
2019-06-27T09:31:22.107Z,80.13
2019-06-27T09:32:25.906Z,79.45
2019-06-27T09:33:22.218Z,78.71
2019-06-27T09:34:22.280Z,78.86
2019-06-27T09:35:22.365Z,81.95
2019-06-27T09:36:22.406Z,83.56
2019-06-27T09:37:22.459Z,82.14
2019-06-27T09:38:22.510Z,80.91
2019-06-27T09:39:22.574Z,78.13
2019-06-27T09:40:22.725Z,78.45
2019-06-27T09:41:22.696Z,78.20
2019-06-27T09:42:22.745Z,79.90
2019-06-27T09:43:22.806Z,75.63
2019-06-27T09:44:22.869Z,76.45
2019-06-27T09:45:22.952Z,75.18
2019-06-27T09:46:22.984Z,73.71
2019-06-27T09:47:23.036Z,73.46
2019-06-27T09:48:23.115Z,72.31
2019-06-27T09:49:23.163Z,73.58
2019-06-27T09:50:23.234Z,75.79
2019-06-27T09:51:23.273Z,77.71
2019-06-27T09:52:23.341Z,79.41
2019-06-27T09:53:23.388Z,79.35
2019-06-27T09:54:23.467Z,78.61
2019-06-27T09:55:23.532Z,76.32
2019-06-27T09:56:23.577Z,78.00
2019-06-27T09:57:23.627Z,79.37
2019-06-27T09:58:23.699Z,76.51
2019-06-27T09:59:23.767Z,76.81
2019-06-27T10:00:23.824Z,74.88
2019-06-27T10:01:23.877Z,72.21
2019-06-27T10:02:23.921Z,76.06
2019-06-27T10:03:23.991Z,73.42
2019-06-27T10:04:24.043Z,70.68
2019-06-27T10:05:24.126Z,73.19
2019-06-27T10:06:26.295Z,73.76
2019-06-27T10:07:24.236Z,75.74
2019-06-27T10:08:24.279Z,77.79
2019-06-27T10:09:24.344Z,78.81
2019-06-27T10:10:24.395Z,78.45
2019-06-27T10:11:24.478Z,76.93
2019-06-27T10:12:40.966Z,77.26
2019-06-27T10:13:24.572Z,75.27
2019-06-27T10:14:24.631Z,78.00
2019-06-27T10:15:24.720Z,77.94
2019-06-27T10:16:24.800Z,81.01
2019-06-27T10:17:24.807Z,76.45
2019-06-27T10:18:24.868Z,75.45
2019-06-27T10:19:24.959Z,74.02
2019-06-27T10:20:24.989Z,71.37
2019-06-27T10:21:25.063Z,67.74
2019-06-27T10:22:25.101Z,71.91
2019-06-27T10:23:25.169Z,74.65
2019-06-27T10:24:25.223Z,72.89
2019-06-27T10:25:25.490Z,73.35
2019-06-27T10:26:25.374Z,73.47
2019-06-27T10:27:25.402Z,76.37
2019-06-27T10:28:25.473Z,77.54
2019-06-27T10:29:25.522Z,78.85
2019-06-27T10:30:25.595Z,77.28
2019-06-27T10:31:25.660Z,77.83
2019-06-27T10:32:25.696Z,75.07
2019-06-27T10:33:25.773Z,75.23
2019-06-27T10:34:25.836Z,74.32
2019-06-27T10:35:25.895Z,76.32
2019-06-27T10:36:25.953Z,75.74
2019-06-27T10:37:26.020Z,77.01
2019-06-27T10:38:26.051Z,76.62
2019-06-27T10:39:26.112Z,76.76
2019-06-27T10:40:26.292Z,83.53
2019-06-27T10:41:26.223Z,76.44
2019-06-27T10:42:26.514Z,76.71
2019-06-27T10:43:26.343Z,71.66
2019-06-27T10:44:26.419Z,72.24
2019-06-27T10:45:26.467Z,73.91
2019-06-27T10:46:26.601Z,74.43
2019-06-27T10:47:26.608Z,72.08
2019-06-27T10:48:26.638Z,72.57
2019-06-27T10:49:26.700Z,73.87
2019-06-27T10:50:26.755Z,76.03
2019-06-27T10:51:26.818Z,76.97
2019-06-27T10:52:26.893Z,77.65
2019-06-27T10:53:26.933Z,80.10
2019-06-27T10:54:26.991Z,78.23
2019-06-27T10:55:27.061Z,77.45
2019-06-27T10:56:27.108Z,77.65
2019-06-27T10:57:27.206Z,76.48
2019-06-27T10:58:27.229Z,77.49
2019-06-27T10:59:27.294Z,78.70
2019-06-27T11:00:27.350Z,76.98
2019-06-27T11:01:27.432Z,74.85
2019-06-27T11:02:27.489Z,77.20
2019-06-27T11:03:27.557Z,76.61
2019-06-27T11:04:27.591Z,75.73
2019-06-27T11:05:27.644Z,77.94
2019-06-27T11:06:27.707Z,78.86
2019-06-27T11:07:27.781Z,76.67
2019-06-27T11:08:27.828Z,77.03
2019-06-27T11:09:27.886Z,76.25
2019-06-27T11:10:27.945Z,77.87
2019-06-27T11:11:28.006Z,78.13
2019-06-27T11:12:28.082Z,79.69
2019-06-27T11:13:28.113Z,81.13
2019-06-27T11:14:28.172Z,78.78
2019-06-27T11:15:28.262Z,78.63
2019-06-27T11:16:28.338Z,81.25
2019-06-27T11:17:28.372Z,75.71
2019-06-27T11:18:28.518Z,77.61
2019-06-27T11:19:28.472Z,74.11
2019-06-27T11:20:28.531Z,71.89
2019-06-27T11:21:28.590Z,75.46
2019-06-27T11:22:28.648Z,74.08
2019-06-27T11:23:28.738Z,72.65
2019-06-27T11:24:28.765Z,73.04
2019-06-27T11:25:28.831Z,73.57
2019-06-27T11:26:28.886Z,70.59
2019-06-27T11:27:28.946Z,74.98
2019-06-27T11:28:29.020Z,70.10
2019-06-27T11:29:29.067Z,71.96
2019-06-27T11:30:29.182Z,72.09
2019-06-27T11:31:29.184Z,72.13
2019-06-27T11:32:29.246Z,68.56
2019-06-27T11:33:32.995Z,69.31
2019-06-27T11:34:29.364Z,70.46
2019-06-27T11:35:29.424Z,73.44
2019-06-27T11:36:29.485Z,72.52
2019-06-27T11:37:29.545Z,70.00
2019-06-27T11:38:29.669Z,72.51
2019-06-27T11:39:29.666Z,72.94
2019-06-27T11:40:29.729Z,73.96
2019-06-27T11:41:29.787Z,72.09
2019-06-27T11:42:30.038Z,73.27
2019-06-27T11:43:29.944Z,73.23
2019-06-27T11:44:29.998Z,73.59
2019-06-27T11:45:30.034Z,74.11
2019-06-27T11:46:30.104Z,73.52
2019-06-27T11:47:30.154Z,75.45
2019-06-27T11:48:30.243Z,73.79
2019-06-27T11:49:30.294Z,75.90
2019-06-27T11:50:30.337Z,76.26
2019-06-27T11:51:30.438Z,77.59
2019-06-27T11:52:30.457Z,79.58
2019-06-27T11:53:30.514Z,79.23
2019-06-27T11:54:30.597Z,76.84
2019-06-27T11:55:30.646Z,79.33
2019-06-27T11:56:30.698Z,79.76
2019-06-27T11:57:30.770Z,76.17
2019-06-27T11:58:30.818Z,74.87
2019-06-27T11:59:30.906Z,72.38
2019-06-27T12:00:30.943Z,73.96
2019-06-27T12:01:31.010Z,73.21
2019-06-27T12:02:31.075Z,71.86
2019-06-27T12:03:31.127Z,71.31
2019-06-27T12:04:31.205Z,71.64
2019-06-27T12:05:31.262Z,72.75
2019-06-27T12:06:31.350Z,71.04
2019-06-27T12:07:31.405Z,72.16
2019-06-27T12:08:31.424Z,72.78
2019-06-27T12:09:31.561Z,70.72
2019-06-27T12:10:31.552Z,71.51
2019-06-27T12:11:31.611Z,71.67
2019-06-27T12:12:31.673Z,69.21
2019-06-27T12:13:31.738Z,70.10
2019-06-27T12:14:31.851Z,69.05
2019-06-27T12:15:31.856Z,69.67
2019-06-27T12:16:31.914Z,71.53
2019-06-27T12:17:31.978Z,73.33
2019-06-27T12:18:32.054Z,74.57
2019-06-27T12:19:32.153Z,75.98
2019-06-27T12:20:32.165Z,70.42
2019-06-27T12:21:32.225Z,73.94
2019-06-27T12:22:32.291Z,74.08
2019-06-27T12:23:32.348Z,71.73
2019-06-27T12:24:32.430Z,71.79
2019-06-27T12:25:32.491Z,74.43
2019-06-27T12:26:32.532Z,74.33
2019-06-27T12:27:32.647Z,73.97
2019-06-27T12:28:32.654Z,73.77
2019-06-27T12:29:32.714Z,74.65
2019-06-27T12:30:32.801Z,75.99
2019-06-27T12:31:32.843Z,75.63
2019-06-27T12:32:47.107Z,73.58
2019-06-27T12:33:32.964Z,75.87
2019-06-27T12:34:33.028Z,75.90
2019-06-27T12:35:33.115Z,74.33
2019-06-27T12:36:33.147Z,75.15
2019-06-27T12:37:33.209Z,73.79
2019-06-27T12:38:33.282Z,73.79
2019-06-27T12:39:33.330Z,74.86
2019-06-27T12:40:33.414Z,72.94
2019-06-27T12:41:33.476Z,71.27
2019-06-27T12:42:33.515Z,71.69
2019-06-27T12:43:33.577Z,73.26
2019-06-27T12:44:33.639Z,73.22
2019-06-27T12:45:33.718Z,73.55
2019-06-27T12:46:33.764Z,73.00
2019-06-27T12:47:33.819Z,74.02
2019-06-27T12:48:36.908Z,74.05
2019-06-27T12:49:49.990Z,72.58
2019-06-27T12:50:34.022Z,73.07
2019-06-27T12:51:34.123Z,72.28
2019-06-27T12:52:34.130Z,70.81
2019-06-27T12:53:34.187Z,71.93
2019-06-27T12:54:34.252Z,71.96
2019-06-27T12:55:34.336Z,71.11
2019-06-27T12:56:34.374Z,69.21
2019-06-27T12:57:34.434Z,70.13
2019-06-27T12:58:34.496Z,68.37
2019-06-27T12:59:34.563Z,67.19
2019-06-27T13:00:34.735Z,66.86
2019-06-27T13:01:34.685Z,65.03
2019-06-27T13:02:34.746Z,69.31
2019-06-27T13:03:34.819Z,69.70
2019-06-27T13:04:34.875Z,70.59